Time;durP1;ratioP1;P1;durP2;ratioP2;P2;SDS_P1;SDS_P2;PMS_P1;PMS_P2;Temp;Humidity;BMP_temperature;BMP_pressure;BME280_temperature;BME280_humidity;BME280_pressure;Samples;Min_cycle;Max_cycle;Signal;HPM_P1;HPM_P2
2022/06/11 00:01:09;;;;;;;6.63;1.85;;;15.50;90.40;;;;;;5097769;28;20028;-67
2022/06/11 00:03:35;;;;;;;5.35;1.60;;;15.50;90.50;;;;;;5097648;28;20028;-67
2022/06/11 00:06:02;;;;;;;5.18;1.58;;;15.50;90.30;;;;;;5097929;28;20361;-66
2022/06/11 00:08:27;;;;;;;5.13;1.50;;;15.50;90.10;;;;;;5097706;28;20058;-71
2022/06/11 00:10:53;;;;;;;6.43;1.60;;;15.40;90.20;;;;;;5097594;28;20505;-66
2022/06/11 00:13:22;;;;;;;6.57;1.60;;;15.30;90.00;;;;;;5098029;28;20028;-70
2022/06/11 00:15:50;;;;;;;2.50;1.35;;;15.30;90.40;;;;;;5097814;28;20062;-68
2022/06/11 00:18:17;;;;;;;7.55;1.77;;;15.30;90.40;;;;;;5097746;28;20024;-67
2022/06/11 00:20:43;;;;;;;4.47;1.73;;;15.30;90.20;;;;;;5097550;28;20016;-67
2022/06/11 00:23:09;;;;;;;4.03;1.35;;;15.30;90.70;;;;;;5097208;28;20028;-66
2022/06/11 00:25:35;;;;;;;3.92;1.30;;;15.30;90.60;;;;;;5097864;28;20021;-69
2022/06/11 00:28:03;;;;;;;3.28;1.15;;;15.30;90.60;;;;;;5097323;28;20028;-73
2022/06/11 00:30:29;;;;;;;4.57;1.50;;;15.30;90.20;;;;;;5097548;28;20020;-67
2022/06/11 00:32:55;;;;;;;3.90;1.40;;;15.30;90.50;;;;;;5097357;28;20070;-67
2022/06/11 00:35:23;;;;;;;5.20;1.35;;;15.30;90.40;;;;;;5097606;28;20408;-67
2022/06/11 00:37:49;;;;;;;4.72;1.55;;;15.30;90.50;;;;;;5096010;28;20020;-68
2022/06/11 00:40:21;;;;;;;4.35;1.58;;;15.30;90.50;;;;;;5097288;28;20051;-66
2022/06/11 00:42:47;;;;;;;5.22;1.40;;;15.20;90.30;;;;;;5097378;28;20020;-68
2022/06/11 00:45:28;;;;;;;2.88;1.40;;;15.20;90.60;;;;;;5097886;28;20111;-70
2022/06/11 00:48:14;;;;;;;4.90;1.50;;;15.20;90.70;;;;;;5097450;28;20031;-68
2022/06/11 00:50:42;;;;;;;2.92;1.33;;;15.30;90.70;;;;;;5097434;28;20020;-66
2022/06/11 00:53:21;;;;;;;6.38;1.60;;;15.30;90.90;;;;;;5097259;28;20028;-67
2022/06/11 00:55:49;;;;;;;6.22;1.73;;;15.30;90.90;;;;;;5097593;28;20068;-67
2022/06/11 00:58:21;;;;;;;5.38;1.55;;;15.30;90.70;;;;;;5096700;28;20059;-66
2022/06/11 01:00:52;;;;;;;3.70;1.42;;;15.30;90.50;;;;;;5097391;28;20031;-68
2022/06/11 01:03:24;;;;;;;5.05;1.60;;;15.30;90.60;;;;;;5097070;28;20024;-67
2022/06/11 01:06:02;;;;;;;4.97;1.38;;;15.30;90.50;;;;;;5097490;28;20035;-67
2022/06/11 01:08:38;;;;;;;5.30;1.77;;;15.20;90.60;;;;;;5097396;28;20099;-73
2022/06/11 01:11:10;;;;;;;5.90;1.63;;;15.10;90.50;;;;;;5097058;28;20039;-66
2022/06/11 01:14:01;;;;;;;5.90;1.60;;;15.10;90.60;;;;;;5097026;28;20024;-69
2022/06/11 01:16:56;;;;;;;3.72;1.63;;;15.00;90.40;;;;;;5097185;28;20103;-67
2022/06/11 01:19:27;;;;;;;5.82;1.88;;;14.90;90.40;;;;;;5096880;28;20029;-68
2022/06/11 01:22:28;;;;;;;6.13;1.98;;;14.90;90.40;;;;;;5096740;28;20058;-67
2022/06/11 01:24:58;;;;;;;8.77;2.00;;;14.80;90.40;;;;;;5097428;28;20058;-66
2022/06/11 01:27:42;;;;;;;3.25;1.58;;;14.80;90.30;;;;;;5097084;28;20108;-67
2022/06/11 01:30:21;;;;;;;8.80;2.08;;;14.70;90.40;;;;;;5096882;28;20099;-69
2022/06/11 01:33:07;;;;;;;6.30;2.10;;;14.60;90.10;;;;;;5096534;28;20067;-69
2022/06/11 01:35:46;;;;;;;5.72;2.00;;;14.60;90.30;;;;;;5099530;28;20034;-70
2022/06/11 01:38:35;;;;;;;4.60;2.00;;;14.60;90.30;;;;;;5100649;28;20046;-68
2022/06/11 01:41:12;;;;;;;7.50;1.80;;;14.50;90.30;;;;;;5100682;28;20039;-71
2022/06/11 01:43:42;;;;;;;6.32;2.05;;;14.50;89.70;;;;;;5100496;28;20101;-67
2022/06/11 01:46:18;;;;;;;7.43;1.88;;;14.40;90.20;;;;;;5100597;28;20050;-71
2022/06/11 01:49:07;;;;;;;7.13;2.13;;;14.40;90.40;;;;;;5100189;28;20025;-67
2022/06/11 01:51:48;;;;;;;4.97;1.55;;;14.30;90.50;;;;;;5100472;28;20474;-67
2022/06/11 01:54:29;;;;;;;6.10;2.03;;;14.30;90.50;;;;;;5100073;28;20016;-68
2022/06/11 01:57:22;;;;;;;7.53;1.90;;;14.30;90.50;;;;;;5099628;28;20128;-67
2022/06/11 02:00:02;;;;;;;5.57;1.98;;;14.30;90.60;;;;;;5100147;28;20043;-69
2022/06/11 02:02:46;;;;;;;6.45;1.98;;;14.30;90.70;;;;;;5100116;28;20024;-67
2022/06/11 02:05:34;;;;;;;6.93;1.98;;;14.30;90.60;;;;;;5100097;28;20032;-74
2022/06/11 02:08:24;;;;;;;9.75;2.03;;;14.30;90.40;;;;;;5100214;28;20484;-66
2022/06/11 02:11:10;;;;;;;6.55;2.15;;;14.20;90.20;;;;;;5100516;28;20449;-67
2022/06/11 02:13:43;;;;;;;5.90;1.95;;;14.10;90.20;;;;;;5099940;28;20028;-67
2022/06/11 02:16:13;;;;;;;7.10;2.17;;;14.10;90.00;;;;;;5099726;28;20031;-66
2022/06/11 02:18:41;;;;;;;4.25;2.10;;;14.00;89.40;;;;;;5099556;28;20024;-69
2022/06/11 02:21:11;;;;;;;5.90;2.25;;;14.00;89.30;;;;;;5099926;28;20023;-69
2022/06/11 02:23:52;;;;;;;7.05;1.88;;;13.90;90.00;;;;;;5099585;28;20020;-68
2022/06/11 02:26:31;;;;;;;6.68;2.00;;;13.90;89.10;;;;;;5099668;28;20535;-66
2022/06/11 02:28:59;;;;;;;5.97;2.17;;;13.80;89.10;;;;;;5099670;28;20020;-69
2022/06/11 02:31:39;;;;;;;5.45;2.05;;;13.70;89.60;;;;;;5099656;28;20035;-66
2022/06/11 02:34:07;;;;;;;8.48;2.45;;;13.70;90.40;;;;;;5099829;28;20490;-67
2022/06/11 02:36:46;;;;;;;7.93;2.65;;;13.70;90.90;;;;;;5099326;28;20023;-69
2022/06/11 02:39:12;;;;;;;7.97;2.78;;;13.80;90.40;;;;;;5099428;28;20059;-69
2022/06/11 02:41:37;;;;;;;6.20;2.45;;;13.80;90.90;;;;;;5099435;28;20020;-66
2022/06/11 02:44:03;;;;;;;8.07;2.78;;;13.90;91.20;;;;;;5099361;28;20073;-67
2022/06/11 02:46:41;;;;;;;7.28;2.53;;;13.90;91.80;;;;;;5098865;28;20089;-67
2022/06/11 02:49:13;;;;;;;8.82;3.47;;;14.00;91.50;;;;;;5099259;28;20099;-71
2022/06/11 02:51:39;;;;;;;6.15;2.83;;;14.00;91.20;;;;;;5099195;28;20027;-66
2022/06/11 02:54:05;;;;;;;9.30;2.80;;;14.00;90.80;;;;;;5098986;28;20050;-67
2022/06/11 02:56:32;;;;;;;7.43;2.67;;;14.10;90.50;;;;;;5098674;28;20048;-66
2022/06/11 02:58:58;;;;;;;6.55;2.40;;;14.00;91.20;;;;;;5099015;28;20380;-66
2022/06/11 03:01:26;;;;;;;6.55;2.70;;;14.00;91.50;;;;;;5098542;28;20027;-66
2022/06/11 03:03:53;;;;;;;7.07;2.75;;;14.00;91.00;;;;;;5098994;28;20049;-68
2022/06/11 03:06:22;;;;;;;5.65;2.47;;;14.00;91.30;;;;;;5098561;28;20024;-66
2022/06/11 03:08:48;;;;;;;3.17;1.80;;;13.90;91.20;;;;;;5098820;28;20115;-68
2022/06/11 03:11:14;;;;;;;4.13;2.28;;;13.90;91.10;;;;;;5098645;28;20056;-67
2022/06/11 03:13:39;;;;;;;4.55;2.00;;;13.80;90.80;;;;;;5098594;28;20080;-67
2022/06/11 03:16:06;;;;;;;6.80;2.25;;;13.80;90.80;;;;;;5098590;28;20054;-67
2022/06/11 03:18:32;;;;;;;5.60;2.30;;;13.80;90.20;;;;;;5098564;28;20024;-66
2022/06/11 03:20:58;;;;;;;4.03;2.00;;;13.70;90.10;;;;;;5098249;28;20036;-67
2022/06/11 03:23:26;;;;;;;6.18;2.40;;;13.60;90.30;;;;;;5098669;28;20020;-67
2022/06/11 03:25:52;;;;;;;4.93;2.00;;;13.60;90.50;;;;;;5098155;28;20036;-66
2022/06/11 03:28:23;;;;;;;4.25;2.10;;;13.50;90.30;;;;;;5098768;28;20833;-68
2022/06/11 03:30:49;;;;;;;4.40;1.90;;;13.50;90.20;;;;;;5098451;28;20024;-66
2022/06/11 03:33:15;;;;;;;2.90;1.88;;;13.50;90.70;;;;;;5098111;28;20069;-66
2022/06/11 03:35:43;;;;;;;3.63;1.70;;;13.40;90.90;;;;;;5097950;28;20024;-66
2022/06/11 03:38:09;;;;;;;3.75;2.10;;;13.40;90.80;;;;;;5098314;28;20099;-70
2022/06/11 03:40:35;;;;;;;2.97;1.73;;;13.40;90.40;;;;;;5097999;28;20051;-66
2022/06/11 03:43:01;;;;;;;5.45;1.73;;;13.30;90.60;;;;;;5098252;28;20042;-68
2022/06/11 03:45:28;;;;;;;3.80;1.80;;;13.30;90.30;;;;;;5098218;28;20020;-67
2022/06/11 03:47:53;;;;;;;5.40;2.00;;;13.30;89.90;;;;;;5098246;28;20360;-67
2022/06/11 03:50:24;;;;;;;4.20;1.80;;;13.20;90.00;;;;;;5098148;28;20065;-66
2022/06/11 03:52:51;;;;;;;2.97;2.00;;;13.20;90.50;;;;;;5098090;28;20086;-69
2022/06/11 03:55:18;;;;;;;4.95;2.03;;;13.20;90.30;;;;;;5098074;28;20032;-66
2022/06/11 03:57:44;;;;;;;5.88;1.73;;;13.20;90.10;;;;;;5096926;28;20122;-66
2022/06/11 04:00:15;;;;;;;4.88;1.80;;;13.10;90.20;;;;;;5097688;28;20028;-67
2022/06/11 04:02:41;;;;;;;4.20;1.95;;;13.10;90.10;;;;;;5097835;28;20469;-70
2022/06/11 04:05:07;;;;;;;4.18;1.90;;;13.10;90.10;;;;;;5097864;28;20028;-68
2022/06/11 04:07:33;;;;;;;4.65;1.50;;;13.00;90.60;;;;;;5097769;28;20020;-67
2022/06/11 04:10:00;;;;;;;4.32;1.67;;;13.00;90.60;;;;;;5097659;28;20487;-71
2022/06/11 04:12:26;;;;;;;3.75;1.67;;;13.00;90.60;;;;;;5097706;28;20031;-67
2022/06/11 04:14:52;;;;;;;3.20;1.50;;;13.00;90.70;;;;;;5097697;28;20031;-69
2022/06/11 04:17:28;;;;;;;4.45;1.70;;;13.00;90.30;;;;;;5097753;28;20051;-66
2022/06/11 04:19:54;;;;;;;3.17;1.60;;;12.90;90.50;;;;;;5097702;28;20024;-68
2022/06/11 04:22:21;;;;;;;2.50;1.50;;;12.90;90.30;;;;;;5097804;28;20012;-67
2022/06/11 04:24:47;;;;;;;3.15;1.65;;;12.80;90.50;;;;;;5097759;28;20026;-66
2022/06/11 04:27:16;;;;;;;2.83;1.70;;;12.80;90.30;;;;;;5097631;28;20527;-68
2022/06/11 04:29:46;;;;;;;4.22;1.58;;;12.80;90.40;;;;;;5097676;28;20484;-66
2022/06/11 04:32:15;;;;;;;4.28;1.70;;;12.80;90.50;;;;;;5097768;28;20024;-68
2022/06/11 04:34:43;;;;;;;3.75;1.45;;;12.80;90.40;;;;;;5097406;28;20049;-67
2022/06/11 04:37:13;;;;;;;3.20;1.50;;;12.70;90.40;;;;;;5097507;28;20028;-65
2022/06/11 04:39:44;;;;;;;2.20;1.40;;;12.70;90.60;;;;;;5097345;28;20016;-67
2022/06/11 04:42:11;;;;;;;2.15;1.40;;;12.70;90.60;;;;;;5097570;28;20384;-67
2022/06/11 04:44:39;;;;;;;2.58;1.40;;;12.70;90.70;;;;;;5097505;28;20422;-66
2022/06/11 04:47:06;;;;;;;1.70;1.13;;;12.70;90.60;;;;;;5096006;28;20399;-66
2022/06/11 04:49:32;;;;;;;1.85;1.30;;;12.70;90.70;;;;;;5097280;28;20024;-65
2022/06/11 04:51:58;;;;;;;4.88;1.40;;;12.70;90.80;;;;;;5097276;28;20391;-67
2022/06/11 04:54:25;;;;;;;2.38;1.33;;;12.70;90.70;;;;;;5097754;28;20020;-68
2022/06/11 04:56:51;;;;;;;3.10;1.35;;;12.60;90.70;;;;;;5096974;28;20569;-67
2022/06/11 04:59:17;;;;;;;4.13;1.55;;;12.60;90.90;;;;;;5096132;28;20127;-66
2022/06/11 05:01:43;;;;;;;3.05;1.50;;;12.60;91.10;;;;;;5096407;28;20472;-66
2022/06/11 05:04:10;;;;;;;2.67;1.50;;;12.60;91.00;;;;;;5097142;28;20024;-66
2022/06/11 05:06:39;;;;;;;3.72;1.25;;;12.70;91.10;;;;;;5095879;28;20028;-65
2022/06/11 05:09:09;;;;;;;3.75;1.50;;;12.70;91.00;;;;;;5099060;28;20036;-66
2022/06/11 05:11:36;;;;;;;2.78;1.30;;;12.70;90.90;;;;;;5100892;28;20024;-65
2022/06/11 05:14:02;;;;;;;2.53;1.42;;;12.70;91.00;;;;;;5100866;28;20028;-66
2022/06/11 05:16:28;;;;;;;3.45;1.50;;;12.70;91.00;;;;;;5100803;28;20020;-65
2022/06/11 05:18:54;;;;;;;2.50;1.50;;;12.80;91.00;;;;;;5099201;28;20054;-66
2022/06/11 05:21:21;;;;;;;4.10;1.50;;;12.80;91.20;;;;;;5100899;28;20012;-66
2022/06/11 05:23:46;;;;;;;4.57;1.80;;;12.80;90.60;;;;;;5101090;28;20020;-66
2022/06/11 05:26:26;;;;;;;2.90;1.65;;;12.90;90.90;;;;;;5100549;28;20440;-66
2022/06/11 05:28:52;;;;;;;4.63;1.67;;;12.90;90.60;;;;;;5100942;28;20028;-66
2022/06/11 05:31:18;;;;;;;3.83;1.52;;;12.90;90.60;;;;;;5100798;28;20113;-66
2022/06/11 05:33:44;;;;;;;2.30;1.40;;;12.90;91.00;;;;;;5100494;28;20032;-66
2022/06/11 05:36:12;;;;;;;3.38;1.50;;;13.00;91.20;;;;;;5100589;28;20081;-66
2022/06/11 05:38:38;;;;;;;7.22;2.08;;;13.00;90.90;;;;;;5100315;28;20038;-66
2022/06/11 05:41:04;;;;;;;6.15;1.83;;;13.00;91.10;;;;;;5100468;28;20024;-66
2022/06/11 05:43:30;;;;;;;6.07;2.20;;;13.00;91.00;;;;;;5100483;28;20077;-66
2022/06/11 05:45:58;;;;;;;6.25;1.95;;;13.00;91.00;;;;;;5100170;28;20376;-66
2022/06/11 05:48:32;;;;;;;3.70;2.22;;;13.10;91.00;;;;;;5100547;28;20028;-66
2022/06/11 05:50:59;;;;;;;4.18;2.20;;;13.10;91.10;;;;;;5100422;28;20031;-66
2022/06/11 05:53:29;;;;;;;9.05;2.90;;;13.20;91.20;;;;;;5099885;28;20024;-66
2022/06/11 05:55:58;;;;;;;5.32;2.80;;;13.20;91.20;;;;;;5100000;28;20030;-66
2022/06/11 05:58:32;;;;;;;7.78;2.70;;;13.30;91.50;;;;;;5099879;28;20512;-66
2022/06/11 06:00:59;;;;;;;7.50;2.53;;;13.30;91.90;;;;;;5100228;28;20039;-67
2022/06/11 06:03:25;;;;;;;6.22;2.42;;;13.30;91.70;;;;;;5100107;28;20024;-66
2022/06/11 06:05:50;;;;;;;7.07;2.83;;;13.40;91.40;;;;;;5099857;28;20487;-65
2022/06/11 06:08:16;;;;;;;6.20;2.65;;;13.40;91.40;;;;;;5100031;28;20095;-66
2022/06/11 06:10:42;;;;;;;7.25;2.50;;;13.50;91.50;;;;;;5099885;28;20609;-65
2022/06/11 06:15:53;;;;;;;6.00;2.50;;;13.60;91.80;;;;;;5099747;28;20195;-66
2022/06/11 06:18:20;;;;;;;6.22;2.72;;;13.60;92.20;;;;;;5099831;28;20071;-66
2022/06/11 06:20:46;;;;;;;8.13;2.88;;;13.70;91.60;;;;;;5098864;28;20024;-66
2022/06/11 06:23:12;;;;;;;8.55;3.22;;;13.70;91.90;;;;;;5099559;28;20027;-66
2022/06/11 06:25:38;;;;;;;9.55;3.38;;;13.70;91.90;;;;;;5099545;28;20073;-66
2022/06/11 06:28:05;;;;;;;7.78;3.28;;;13.80;92.40;;;;;;5100045;28;20028;-66
2022/06/11 06:30:31;;;;;;;8.60;3.28;;;13.80;92.50;;;;;;5099384;28;20046;-66
2022/06/11 06:32:57;;;;;;;12.50;3.75;;;13.90;92.10;;;;;;5099233;28;20066;-66
2022/06/11 06:35:22;;;;;;;8.45;2.92;;;13.90;92.10;;;;;;5099537;28;20020;-66
2022/06/11 06:37:48;;;;;;;10.20;3.13;;;14.00;92.20;;;;;;5099583;28;20036;-66
2022/06/11 06:40:14;;;;;;;8.90;2.67;;;14.00;92.40;;;;;;5099277;28;20029;-66
2022/06/11 06:42:40;;;;;;;8.65;2.70;;;14.10;92.70;;;;;;5098994;28;20032;-66
2022/06/11 06:45:06;;;;;;;7.47;2.88;;;14.10;92.70;;;;;;5099333;28;20024;-66
2022/06/11 06:47:32;;;;;;;8.70;2.28;;;14.20;92.50;;;;;;5099212;28;20522;-66
2022/06/11 06:49:58;;;;;;;8.25;2.92;;;14.20;92.70;;;;;;5099203;28;20024;-66
2022/06/11 06:52:23;;;;;;;9.45;2.60;;;14.30;92.40;;;;;;5098861;28;20035;-66
2022/06/11 06:54:50;;;;;;;8.23;2.50;;;14.40;92.30;;;;;;5098573;28;20020;-66
2022/06/11 06:57:16;;;;;;;8.52;2.35;;;14.40;92.40;;;;;;5098728;28;20052;-66
2022/06/11 06:59:41;;;;;;;8.32;2.58;;;14.50;92.50;;;;;;5098825;28;20028;-66
2022/06/11 07:02:13;;;;;;;9.68;2.90;;;14.50;92.80;;;;;;5098730;28;20031;-66
2022/06/11 07:04:39;;;;;;;9.82;2.58;;;14.60;92.30;;;;;;5098938;28;20020;-66
2022/06/11 07:07:06;;;;;;;10.88;3.08;;;14.60;92.90;;;;;;5098621;28;20077;-66
2022/06/11 07:09:31;;;;;;;14.30;3.47;;;14.70;92.50;;;;;;5098570;28;20028;-66
2022/06/11 07:11:57;;;;;;;8.93;3.25;;;14.80;92.60;;;;;;5098657;28;20034;-66
2022/06/11 07:14:24;;;;;;;15.45;3.67;;;14.80;92.60;;;;;;5098436;28;20035;-66
2022/06/11 07:16:53;;;;;;;12.35;4.78;;;14.90;92.70;;;;;;5098661;28;20039;-66
2022/06/11 07:19:27;;;;;;;12.55;3.47;;;15.00;93.00;;;;;;5096927;28;20028;-66
2022/06/11 07:21:57;;;;;;;14.75;2.95;;;15.10;92.50;;;;;;5098755;28;20024;-66
2022/06/11 07:24:27;;;;;;;12.43;3.05;;;15.10;92.40;;;;;;5098395;28;20099;-66
2022/06/11 07:26:58;;;;;;;9.70;3.15;;;15.20;92.50;;;;;;5098290;28;20019;-66
2022/06/11 07:29:27;;;;;;;11.38;3.85;;;15.30;92.70;;;;;;5098262;28;20024;-67
2022/06/11 07:31:58;;;;;;;13.00;3.17;;;15.40;93.20;;;;;;5097824;28;20024;-66
2022/06/11 07:34:24;;;;;;;18.88;4.13;;;15.40;92.50;;;;;;5097686;28;20035;-66
2022/06/11 07:36:50;;;;;;;14.98;4.10;;;15.50;92.60;;;;;;5097865;28;20030;-67
2022/06/11 07:39:16;;;;;;;17.83;4.15;;;15.60;92.40;;;;;;5097609;28;20050;-66
2022/06/11 07:41:42;;;;;;;20.73;4.35;;;15.60;92.50;;;;;;5097828;28;20024;-67
2022/06/11 07:44:08;;;;;;;14.55;4.60;;;15.70;92.60;;;;;;5098022;28;20085;-66
2022/06/11 07:46:34;;;;;;;14.68;4.10;;;15.80;92.80;;;;;;5097971;28;20051;-66
2022/06/11 07:49:00;;;;;;;20.17;4.47;;;15.90;92.50;;;;;;5097156;28;20099;-66
2022/06/11 07:51:26;;;;;;;16.45;4.13;;;16.10;92.90;;;;;;5097104;28;20032;-67
2022/06/11 07:53:52;;;;;;;18.75;4.63;;;16.20;92.10;;;;;;5097854;28;20166;-67
2022/06/11 07:56:19;;;;;;;16.15;3.58;;;16.20;91.70;;;;;;5097550;28;20056;-66
2022/06/11 07:58:45;;;;;;;23.70;5.38;;;16.20;90.30;;;;;;5096475;28;20028;-66
2022/06/11 08:01:11;;;;;;;18.60;5.10;;;16.20;90.90;;;;;;5095635;28;20025;-69
2022/06/11 08:03:38;;;;;;;16.75;3.90;;;16.10;90.30;;;;;;5095748;28;20126;-67
2022/06/11 08:06:07;;;;;;;14.73;4.60;;;16.10;91.30;;;;;;5096662;28;20024;-66
2022/06/11 08:08:33;;;;;;;13.98;4.00;;;16.20;91.00;;;;;;5096572;28;20028;-67
2022/06/11 08:11:01;;;;;;;15.40;4.65;;;16.30;91.10;;;;;;5096936;28;20012;-67
2022/06/11 08:13:27;;;;;;;15.40;3.90;;;16.40;91.40;;;;;;5097349;28;20024;-66
2022/06/11 08:15:53;;;;;;;14.70;4.38;;;16.60;91.10;;;;;;5097588;28;20454;-66
2022/06/11 08:18:20;;;;;;;16.42;4.25;;;16.70;91.40;;;;;;5097828;28;20024;-67
2022/06/11 08:20:46;;;;;;;14.18;4.53;;;17.00;91.30;;;;;;5097632;28;20027;-66
2022/06/11 08:23:14;;;;;;;15.27;3.60;;;17.10;90.60;;;;;;5097976;28;20031;-67
2022/06/11 08:25:39;;;;;;;15.68;4.07;;;17.20;88.80;;;;;;5097664;28;20040;-66
2022/06/11 08:28:06;;;;;;;18.10;4.60;;;17.20;87.20;;;;;;5097442;28;20027;-68
2022/06/11 08:30:33;;;;;;;17.38;4.63;;;17.10;89.30;;;;;;5097649;28;20051;-66
2022/06/11 08:32:59;;;;;;;17.60;5.28;;;17.00;89.80;;;;;;5097410;28;20471;-66
2022/06/11 08:35:27;;;;;;;14.95;4.38;;;17.00;88.10;;;;;;5097579;28;20020;-58
2022/06/11 08:37:53;;;;;;;19.98;4.32;;;17.00;89.90;;;;;;5097281;28;20028;-65
2022/06/11 08:40:34;;;;;;;19.02;4.43;;;17.00;88.50;;;;;;5097255;28;20487;-68
2022/06/11 08:43:19;;;;;;;21.10;3.90;;;17.00;90.10;;;;;;5097919;28;20020;-66
2022/06/11 08:46:06;;;;;;;15.65;3.80;;;17.10;88.30;;;;;;5101244;28;20036;-66
2022/06/11 08:49:01;;;;;;;17.08;4.13;;;17.10;89.80;;;;;;5100998;28;20040;-67
2022/06/11 08:51:56;;;;;;;17.13;3.83;;;17.20;87.40;;;;;;5101578;28;20027;-65
2022/06/11 08:54:39;;;;;;;18.85;4.07;;;17.40;84.90;;;;;;5101491;28;20032;-65
2022/06/11 08:57:32;;;;;;;13.07;4.03;;;17.50;87.10;;;;;;5100879;28;20102;-65
2022/06/11 09:00:09;;;;;;;17.02;3.83;;;17.50;87.80;;;;;;5101267;28;20028;-65
2022/06/11 09:02:40;;;;;;;15.20;4.05;;;17.50;87.30;;;;;;5101072;28;20016;-66
2022/06/11 09:05:40;;;;;;;20.40;3.67;;;17.50;84.50;;;;;;5101044;28;20080;-65
2022/06/11 09:08:34;;;;;;;18.83;4.63;;;17.50;84.20;;;;;;5101122;28;20027;-65
2022/06/11 09:11:18;;;;;;;16.58;4.18;;;17.50;85.80;;;;;;5101387;28;20024;-65
2022/06/11 09:13:46;;;;;;;13.93;3.70;;;17.50;85.90;;;;;;5100589;28;20063;-65
2022/06/11 09:16:25;;;;;;;16.05;4.47;;;17.50;84.20;;;;;;5100281;28;20406;-65
2022/06/11 09:19:00;;;;;;;15.57;4.10;;;17.50;85.90;;;;;;5100705;28;20036;-67
2022/06/11 09:21:42;;;;;;;14.95;3.75;;;17.50;86.50;;;;;;5100871;28;20360;-66
2022/06/11 09:24:16;;;;;;;17.70;4.40;;;17.40;85.50;;;;;;5100706;28;20024;-65
2022/06/11 09:26:56;;;;;;;18.77;4.63;;;17.40;86.70;;;;;;5100786;28;20024;-66
2022/06/11 09:29:33;;;;;;;17.42;4.35;;;17.40;86.60;;;;;;5100579;28;20031;-65
2022/06/11 09:32:23;;;;;;;16.13;3.75;;;17.40;88.20;;;;;;5100656;28;20047;-66
2022/06/11 09:34:53;;;;;;;18.20;4.53;;;17.40;86.70;;;;;;5100742;28;20056;-66
2022/06/11 09:37:53;;;;;;;19.33;4.78;;;17.50;85.70;;;;;;5099230;28;20020;-66
2022/06/11 09:40:49;;;;;;;17.60;4.25;;;17.50;85.30;;;;;;5100274;28;20076;-65
2022/06/11 09:43:34;;;;;;;15.55;4.28;;;17.70;88.40;;;;;;5100341;28;20543;-66
2022/06/11 09:46:10;;;;;;;19.90;4.13;;;17.90;87.90;;;;;;5100168;28;20022;-65
2022/06/11 09:49:04;;;;;;;19.17;4.65;;;18.10;84.70;;;;;;5100323;28;20483;-71
2022/06/11 09:51:59;;;;;;;12.25;3.85;;;18.30;84.50;;;;;;5100425;28;20020;-66
2022/06/11 09:54:34;;;;;;;14.77;4.38;;;18.30;81.60;;;;;;5087928;28;20434;-66
2022/06/11 09:57:11;;;;;;;22.52;5.15;;;18.50;84.20;;;;;;5099445;28;20040;-66
2022/06/11 09:59:44;;;;;;;18.90;4.72;;;18.70;82.30;;;;;;5100150;28;20341;-65
2022/06/11 10:02:27;;;;;;;17.05;5.13;;;18.90;83.20;;;;;;5099999;28;20024;-65
2022/06/11 10:04:55;;;;;;;14.07;3.70;;;19.20;82.80;;;;;;5099760;28;20028;-65
2022/06/11 10:07:45;;;;;;;16.67;4.25;;;19.30;78.30;;;;;;5100143;28;20021;-66
2022/06/11 10:10:21;;;;;;;15.30;4.35;;;19.50;82.10;;;;;;5099477;28;20043;-66
2022/06/11 10:12:52;;;;;;;15.70;4.70;;;19.70;79.90;;;;;;5099993;28;20024;-66
2022/06/11 10:15:34;;;;;;;16.60;3.85;;;20.10;78.00;;;;;;5099731;28;20440;-65
2022/06/11 10:18:13;;;;;;;13.52;3.72;;;20.30;75.60;;;;;;5099762;28;20024;-66
2022/06/11 10:20:54;;;;;;;18.92;4.78;;;20.40;76.20;;;;;;5099610;28;20051;-66
2022/06/11 10:23:51;;;;;;;13.55;4.60;;;20.70;79.00;;;;;;5099383;28;20021;-67
2022/06/11 10:26:26;;;;;;;14.07;4.03;;;21.20;75.10;;;;;;5099728;28;20031;-69
2022/06/11 10:29:13;;;;;;;16.63;4.38;;;21.30;72.20;;;;;;5099549;28;20403;-66
2022/06/11 10:32:10;;;;;;;18.33;3.85;;;21.40;73.50;;;;;;5099130;28;20478;-66
2022/06/11 10:34:40;;;;;;;22.38;4.15;;;21.60;72.90;;;;;;5099370;28;20038;-67
2022/06/11 10:37:33;;;;;;;15.88;4.22;;;21.90;74.70;;;;;;5099396;28;20414;-66
2022/06/11 10:40:30;;;;;;;16.10;3.80;;;22.20;73.50;;;;;;5099282;28;20099;-67
2022/06/11 10:43:10;;;;;;;13.23;3.40;;;22.60;67.00;;;;;;5099130;28;20422;-67
2022/06/11 10:45:37;;;;;;;17.73;4.65;;;22.70;67.80;;;;;;5099282;28;20021;-67
2022/06/11 10:48:13;;;;;;;14.40;3.72;;;22.80;66.60;;;;;;5098997;28;20043;-66
2022/06/11 10:50:40;;;;;;;14.13;4.00;;;22.90;67.00;;;;;;5099262;28;20024;-67
2022/06/11 10:53:22;;;;;;;16.00;4.30;;;23.00;64.20;;;;;;5098936;28;20054;-67
2022/06/11 10:56:02;;;;;;;15.68;4.50;;;23.30;69.60;;;;;;5098903;28;20024;-67
2022/06/11 10:58:38;;;;;;;14.45;4.25;;;23.50;64.20;;;;;;5098986;28;20101;-67
2022/06/11 11:01:12;;;;;;;12.65;3.83;;;23.60;64.10;;;;;;5098951;28;20073;-67
2022/06/11 11:03:41;;;;;;;14.18;3.70;;;23.50;64.70;;;;;;5098715;28;20016;-67
2022/06/11 11:06:10;;;;;;;14.75;3.65;;;23.40;65.10;;;;;;5098732;28;20020;-67
2022/06/11 11:08:49;;;;;;;15.88;3.97;;;23.00;64.80;;;;;;5098387;28;20020;-67
2022/06/11 11:11:15;;;;;;;14.80;3.85;;;22.80;64.90;;;;;;5098308;28;20024;-67
2022/06/11 11:13:43;;;;;;;13.55;4.22;;;22.90;67.00;;;;;;5098519;28;20031;-69
2022/06/11 11:16:12;;;;;;;11.60;3.22;;;23.30;65.00;;;;;;5098440;28;20078;-68
2022/06/11 11:18:45;;;;;;;16.58;3.95;;;24.10;62.80;;;;;;5098186;28;20078;-68
2022/06/11 11:21:49;;;;;;;11.98;3.58;;;24.80;60.50;;;;;;5098217;28;20020;-68
2022/06/11 11:24:43;;;;;;;19.35;5.22;;;25.30;61.50;;;;;;5098374;28;20028;-68
2022/06/11 11:27:09;;;;;;;;;;;25.70;59.60;;;;;;5090465;28;20036;-69
2022/06/11 11:29:38;;;;;;;15.55;3.88;;;25.70;60.90;;;;;;5098639;28;19911;-71
2022/06/11 11:32:29;;;;;;;12.57;3.70;;;25.50;56.60;;;;;;5098408;28;20032;-74
2022/06/11 11:34:55;;;;;;;16.83;4.38;;;25.70;63.60;;;;;;5098736;28;20027;-68
2022/06/11 11:37:25;;;;;;;19.08;4.93;;;25.60;58.40;;;;;;5098367;28;20164;-74
2022/06/11 11:39:54;;;;;;;16.60;4.50;;;25.30;57.30;;;;;;5098267;28;20113;-68
2022/06/11 11:42:36;;;;;;;15.55;4.15;;;25.20;55.40;;;;;;5097817;28;20589;-68
2022/06/11 11:45:39;;;;;;;16.08;3.92;;;25.00;60.00;;;;;;5098343;28;20043;-69
2022/06/11 11:48:07;;;;;;;14.75;4.15;;;25.00;56.30;;;;;;5098359;28;20031;-72
2022/06/11 11:50:37;;;;;;;13.57;4.57;;;25.50;58.70;;;;;;5098157;28;20024;-69
2022/06/11 11:53:21;;;;;;;13.40;4.00;;;25.60;57.80;;;;;;5098026;28;20032;-68
2022/06/11 11:56:03;;;;;;;18.02;4.78;;;25.90;59.60;;;;;;5097812;28;20032;-68
2022/06/11 11:58:34;;;;;;;12.23;4.45;;;25.90;53.10;;;;;;5098290;28;20077;-75
2022/06/11 12:01:05;;;;;;;13.93;4.15;;;25.80;56.00;;;;;;5097800;28;20408;-69
2022/06/11 12:03:43;;;;;;;16.05;3.47;;;25.50;54.80;;;;;;5097808;28;20035;-67
2022/06/11 12:06:13;;;;;;;18.23;4.78;;;24.70;54.70;;;;;;5097749;28;20020;-67
2022/06/11 12:08:49;;;;;;;15.57;4.22;;;24.40;57.00;;;;;;5097924;28;20020;-67
2022/06/11 12:11:24;;;;;;;15.05;4.35;;;24.50;59.10;;;;;;5097897;28;20024;-68
2022/06/11 12:13:53;;;;;;;11.93;3.85;;;24.40;57.50;;;;;;5097735;28;20051;-67
2022/06/11 12:16:32;;;;;;;13.82;3.83;;;24.50;59.10;;;;;;5097664;28;20035;-67
2022/06/11 12:19:18;;;;;;;16.70;3.58;;;24.60;57.80;;;;;;5096883;28;20422;-67
2022/06/11 12:21:48;;;;;;;13.23;3.42;;;24.70;56.60;;;;;;5097274;28;20036;-68
2022/06/11 12:24:20;;;;;;;15.65;4.30;;;24.70;58.10;;;;;;5097176;28;20016;-68
2022/06/11 12:26:52;;;;;;;15.57;3.45;;;24.80;56.20;;;;;;5097417;28;20042;-68
2022/06/11 12:29:43;;;;;;;17.88;4.03;;;25.20;56.00;;;;;;5097579;28;20031;-68
2022/06/11 12:32:20;;;;;;;10.15;2.92;;;25.50;55.80;;;;;;5097310;28;20028;-68
2022/06/11 12:34:47;;;;;;;12.40;3.42;;;25.60;52.90;;;;;;5097751;28;20020;-68
2022/06/11 12:37:28;;;;;;;14.35;3.25;;;25.50;51.50;;;;;;5097239;28;20036;-68
2022/06/11 12:39:59;;;;;;;13.10;3.10;;;25.70;50.60;;;;;;5097397;28;20103;-68
2022/06/11 12:42:43;;;;;;;14.02;3.15;;;25.90;52.20;;;;;;5097315;28;20504;-68
2022/06/11 12:45:23;;;;;;;12.82;3.47;;;25.90;54.40;;;;;;5097333;28;20045;-68
2022/06/11 12:47:59;;;;;;;12.45;3.70;;;26.00;51.50;;;;;;5097623;28;20024;-68
2022/06/11 12:50:50;;;;;;;12.90;3.55;;;25.80;53.20;;;;;;5097367;28;20020;-68
2022/06/11 12:53:31;;;;;;;12.18;3.30;;;25.80;52.20;;;;;;5097365;28;20042;-70
2022/06/11 12:56:28;;;;;;;12.88;3.05;;;25.50;51.50;;;;;;5097014;28;20460;-69
2022/06/11 12:59:09;;;;;;;10.10;3.13;;;25.60;53.10;;;;;;5097072;28;20044;-69
2022/06/11 13:01:53;;;;;;;11.98;3.25;;;26.00;53.20;;;;;;5097277;28;20422;-71
2022/06/11 13:04:46;;;;;;;13.57;3.08;;;26.20;51.00;;;;;;5097312;28;20130;-69
2022/06/11 13:07:21;;;;;;;6.93;2.45;;;26.00;53.70;;;;;;5097046;28;20016;-69
2022/06/11 13:10:05;;;;;;;12.90;3.42;;;26.10;52.30;;;;;;5096961;28;20042;-69
2022/06/11 13:12:51;;;;;;;13.27;3.17;;;26.10;50.80;;;;;;5096888;28;20093;-67
2022/06/11 13:15:32;;;;;;;10.80;2.65;;;25.80;49.40;;;;;;5097154;28;20052;-68